Time;durP1;ratioP1;P1;durP2;ratioP2;P2;SDS_P1;SDS_P2;PMS_P1;PMS_P2;Temp;Humidity;BMP_temperature;BMP_pressure;BME280_temperature;BME280_humidity;BME280_pressure;Samples;Min_cycle;Max_cycle;Signal;HPM_P1;HPM_P2
2021/12/18 00:00:00;;;;;;;;;10.00;7.50;;;;;8.11;87.56;102171.31;5093117;28;9460;-58
2021/12/18 00:02:28;;;;;;;;;8.50;7.00;;;;;8.09;87.16;102175.81;5091167;28;8958;-58
2021/12/18 00:04:55;;;;;;;;;7.50;7.00;;;;;8.08;87.23;102167.00;5091602;28;8866;-58
2021/12/18 00:07:23;;;;;;;;;11.00;9.50;;;;;8.09;87.49;102173.16;5093146;28;9523;-58
2021/12/18 00:09:53;;;;;;;;;7.00;4.00;;;;;8.07;87.22;102165.25;5092861;28;8842;-58
2021/12/18 00:12:21;;;;;;;;;5.50;4.50;;;;;8.09;87.45;102168.75;5091655;28;8838;-58
2021/12/18 00:14:50;;;;;;;;;1.00;1.00;;;;;8.08;87.27;102161.72;5092685;28;8856;-58
2021/12/18 00:17:17;;;;;;;;;10.50;10.50;;;;;8.09;87.30;102160.78;5091742;28;8842;-58
2021/12/18 00:19:45;;;;;;;;;9.50;7.00;;;;;8.09;87.13;102158.13;5091215;28;8834;-58
2021/12/18 00:22:13;;;;;;;;;6.25;4.00;;;;;8.09;87.16;102150.16;5091217;28;8822;-58
2021/12/18 00:24:41;;;;;;;;;1.00;1.00;;;;;8.08;87.36;102150.22;5090425;28;8838;-58
2021/12/18 00:27:08;;;;;;;;;11.60;9.40;;;;;8.08;87.46;102145.78;5092238;28;8842;-58
2021/12/18 00:29:36;;;;;;;;;12.20;9.40;;;;;8.08;87.26;102155.53;5091547;28;8830;-58
2021/12/18 00:32:04;;;;;;;;;10.00;8.50;;;;;8.06;87.27;102152.91;5090563;28;8854;-58
2021/12/18 00:34:31;;;;;;;;;11.00;8.75;;;;;8.06;87.51;102158.22;5089537;28;8853;-58
2021/12/18 00:36:59;;;;;;;;;7.00;6.25;;;;;8.06;87.22;102158.22;5090903;28;8976;-58
2021/12/18 00:39:30;;;;;;;;;11.75;10.25;;;;;8.07;87.61;102159.09;5091366;28;8976;-58
2021/12/18 00:42:08;;;;;;;;;9.50;9.00;;;;;8.06;87.44;102160.88;5091389;28;9020;-58
2021/12/18 00:44:36;;;;;;;;;10.75;9.00;;;;;8.06;87.57;102165.31;5093148;28;8853;-58
2021/12/18 00:47:04;;;;;;;;;9.00;9.00;;;;;8.04;87.28;102165.38;5092542;28;8862;-58
2021/12/18 00:49:31;;;;;;;;;6.00;5.00;;;;;8.05;87.39;102171.56;5091968;28;8833;-58
2021/12/18 00:51:59;;;;;;;;;4.25;3.25;;;;;8.05;87.33;102171.56;5091921;28;8861;-58
2021/12/18 00:54:27;;;;;;;;;9.25;9.00;;;;;8.03;87.65;102168.06;5091938;28;9616;-58
2021/12/18 00:56:55;;;;;;;;;9.00;9.00;;;;;8.02;87.55;102169.88;5090747;28;8846;-58
2021/12/18 00:59:23;;;;;;;;;6.00;5.50;;;;;8.00;87.48;102169.03;5091336;28;8854;-58
2021/12/18 01:01:51;;;;;;;;;6.25;4.50;;;;;7.98;87.26;102162.91;5090633;28;8826;-58
2021/12/18 01:04:18;;;;;;;;;8.50;8.50;;;;;7.98;87.99;102164.72;5091210;28;8904;-58
2021/12/18 01:06:46;;;;;;;;;9.00;7.50;;;;;7.95;87.55;102162.16;5091031;28;8923;-58
2021/12/18 01:09:16;;;;;;;;;6.50;5.00;;;;;7.94;87.62;102163.94;5091712;28;8849;-58
2021/12/18 01:11:46;;;;;;;;;11.00;9.25;;;;;7.95;87.22;102171.00;5091655;28;8866;-58
2021/12/18 01:14:43;;;;;;;;;12.50;10.00;;;;;7.95;87.73;102170.09;5091629;28;9008;-58
2021/12/18 01:22:45;;;;;;;;;7.75;7.25;;;;;7.90;87.83;102167.59;5091051;28;8846;-57
2021/12/18 01:25:13;;;;;;;;;6.60;5.40;;;;;7.86;87.64;102165.13;5090966;28;8838;-57
2021/12/18 01:27:40;;;;;;;;;8.00;7.00;;;;;7.83;87.78;102162.56;5090455;28;8879;-58
2021/12/18 01:30:08;;;;;;;;;13.20;10.40;;;;;7.83;87.70;102165.22;5091844;28;8852;-58
2021/12/18 01:32:36;;;;;;;;;7.25;6.50;;;;;7.81;88.22;102165.28;5090314;28;8867;-57
2021/12/18 01:35:04;;;;;;;;;4.50;4.00;;;;;7.80;87.55;102163.53;5090892;28;8882;-58
2021/12/18 01:37:31;;;;;;;;;4.50;3.50;;;;;7.78;87.45;102162.72;5090760;28;8858;-58
2021/12/18 01:39:59;;;;;;;;;12.80;10.80;;;;;7.79;87.77;102172.41;5091379;28;8864;-58
2021/12/18 01:45:21;;;;;;;;;12.60;12.00;;;;;7.79;87.79;102160.94;5088252;28;8857;-57
2021/12/18 01:53:20;;;;;;;;;9.80;8.60;;;;;7.69;87.81;102152.41;5091330;28;8857;-58
2021/12/18 01:55:49;;;;;;;;;9.80;9.80;;;;;7.65;87.79;102151.69;5090616;28;8875;-58
2021/12/18 01:58:20;;;;;;;;;10.20;9.20;;;;;7.58;88.24;102148.34;5089524;28;8915;-58
2021/12/18 02:00:48;;;;;;;;;9.20;7.40;;;;;7.55;88.41;102140.53;5090094;28;8846;-57
2021/12/18 02:03:16;;;;;;;;;8.20;7.60;;;;;7.54;88.12;102140.56;5090791;28;9625;-57
2021/12/18 02:05:44;;;;;;;;;10.00;8.20;;;;;7.53;88.48;102141.47;5091055;28;8882;-57
2021/12/18 02:08:12;;;;;;;;;10.80;9.60;;;;;7.52;88.41;102140.63;5090480;28;8842;-58
2021/12/18 02:10:46;;;;;;;;;15.00;12.40;;;;;7.53;88.29;102141.47;5092007;28;8922;-58
2021/12/18 02:13:25;;;;;;;;;3.60;3.60;;;;;7.54;88.24;102140.56;5091313;28;8878;-58
2021/12/18 02:21:40;;;;;;;;;6.60;6.60;;;;;7.59;88.22;102138.63;5028896;28;8868;-58
2021/12/18 02:24:08;;;;;;;;;12.20;10.60;;;;;7.60;88.34;102145.66;5029547;28;8860;-57
2021/12/18 02:26:36;;;;;;;;;5.50;1.50;;;;;7.62;88.31;102135.88;5047730;28;8852;-58
2021/12/18 02:29:05;;;;;;;;;9.00;8.50;;;;;7.64;88.68;102140.22;5070552;28;8855;-58
2021/12/18 02:31:33;;;;;;;;;6.75;6.00;;;;;7.66;87.98;102137.53;5070391;28;8933;-57
2021/12/18 02:34:02;;;;;;;;;5.50;5.00;;;;;7.68;88.07;102133.91;5070817;28;8844;-58
2021/12/18 02:36:30;;;;;;;;;8.00;7.50;;;;;7.69;88.12;102135.63;5070879;28;8995;-58
2021/12/18 02:39:17;;;;;;;;;3.50;3.50;;;;;7.69;88.06;102131.19;5071087;28;8828;-58
2021/12/18 02:41:56;;;;;;;;;9.75;9.00;;;;;7.70;87.91;102134.72;5070357;28;9601;-57
2021/12/18 02:44:23;;;;;;;;;9.60;7.80;;;;;7.72;87.71;102130.22;5070584;28;8848;-57
2021/12/18 02:46:52;;;;;;;;;9.25;9.25;;;;;7.74;88.23;102137.22;5072041;28;8844;-57
2021/12/18 02:49:19;;;;;;;;;7.00;6.00;;;;;7.75;87.88;102131.00;5076774;28;8862;-57
2021/12/18 02:51:47;;;;;;;;;4.00;2.50;;;;;7.77;87.97;102130.94;5090275;28;8857;-58
2021/12/18 02:54:15;;;;;;;;;7.50;7.50;;;;;7.77;88.13;102134.44;5091265;28;9534;-58
2021/12/18 02:56:43;;;;;;;;;10.50;9.25;;;;;7.78;88.20;102127.38;5090614;28;8853;-57
2021/12/18 02:59:10;;;;;;;;;10.00;7.50;;;;;7.79;87.75;102129.09;5090343;28;8865;-57
2021/12/18 03:01:38;;;;;;;;;11.75;11.25;;;;;7.82;87.71;102126.34;5089696;28;8922;-58
2021/12/18 03:04:14;;;;;;;;;6.50;6.50;;;;;7.82;87.76;102118.38;5090290;28;8878;-58
2021/12/18 03:06:45;;;;;;;;;10.50;9.75;;;;;7.82;87.96;102113.97;5090776;28;8845;-58
2021/12/18 03:09:43;;;;;;;;;10.00;7.50;;;;;7.82;87.76;102113.97;5089418;28;9507;-58
2021/12/18 03:25:55;;;;;;;;;7.50;6.75;;;;;7.81;87.65;102114.88;5077293;28;8854;-58
2021/12/18 03:28:23;;;;;;;;;5.50;5.50;;;;;7.80;87.65;102118.44;5089705;28;8846;-57
2021/12/18 03:30:51;;;;;;;;;10.50;9.00;;;;;7.82;87.83;102115.72;5093690;28;8973;-58
2021/12/18 03:33:19;;;;;;;;;6.75;6.00;;;;;7.82;88.01;102121.03;5094728;28;8818;-57
2021/12/18 03:35:46;;;;;;;;;6.75;4.75;;;;;7.84;88.11;102116.56;5093920;28;8874;-58
2021/12/18 03:38:14;;;;;;;;;5.50;4.50;;;;;7.83;87.73;102105.06;5094613;28;9636;-57
2021/12/18 03:40:41;;;;;;;;;5.50;5.00;;;;;7.81;87.82;102114.88;5093960;28;8846;-57
2021/12/18 03:43:10;;;;;;;;;3.50;2.50;;;;;7.82;87.79;102118.38;5094206;28;8846;-57
2021/12/18 03:45:37;;;;;;;;;13.75;10.75;;;;;7.81;88.22;102114.88;5094584;28;8838;-57
2021/12/18 03:48:05;;;;;;;;;9.50;8.00;;;;;7.81;87.86;102125.50;5094937;28;8834;-58
2021/12/18 03:50:33;;;;;;;;;7.50;5.75;;;;;7.83;88.00;102122.78;5092629;28;8840;-58
2021/12/18 03:53:01;;;;;;;;;11.25;10.50;;;;;7.81;87.62;102120.19;5092213;28;8919;-58
2021/12/18 03:55:28;;;;;;;;;8.50;7.75;;;;;7.81;87.94;102122.84;5094576;28;8872;-57
2021/12/18 03:57:56;;;;;;;;;10.00;8.00;;;;;7.81;87.90;102116.66;5093218;28;8850;-57
2021/12/18 04:00:24;;;;;;;;;10.00;9.00;;;;;7.81;88.08;102124.59;5093637;28;8850;-58
2021/12/18 04:02:52;;;;;;;;;9.25;7.50;;;;;7.81;88.01;102125.50;5094128;28;8858;-58
2021/12/18 04:05:20;;;;;;;;;9.25;6.75;;;;;7.81;88.11;102128.13;5093248;28;8858;-57
2021/12/18 04:07:49;;;;;;;;;9.25;6.50;;;;;7.81;87.77;102133.44;5094127;28;8855;-57
2021/12/18 04:10:17;;;;;;;;;4.00;1.50;;;;;7.80;87.42;102123.75;5092687;28;8873;-58
2021/12/18 04:12:46;;;;;;;;;7.50;7.00;;;;;7.79;88.04;102127.34;5094227;28;8972;-58
2021/12/18 04:15:13;;;;;;;;;6.00;5.50;;;;;7.79;88.01;102122.03;5093536;28;8841;-57
2021/12/18 04:17:41;;;;;;;;;8.00;5.50;;;;;7.78;88.11;102125.59;5093235;28;8866;-58
2021/12/18 04:20:09;;;;;;;;;6.50;4.25;;;;;7.77;87.96;102125.66;5092264;28;8956;-58
2021/12/18 04:22:37;;;;;;;;;12.50;9.50;;;;;7.75;88.06;102120.38;5094007;28;8884;-57
2021/12/18 04:25:04;;;;;;;;;9.50;8.00;;;;;7.73;88.08;102116.03;5092806;28;8880;-57
2021/12/18 04:27:32;;;;;;;;;6.50;6.50;;;;;7.70;88.18;102111.69;5093645;28;8849;-57
2021/12/18 04:30:00;;;;;;;;;10.00;8.50;;;;;7.68;88.02;102108.25;5093098;28;8846;-57
2021/12/18 04:32:28;;;;;;;;;6.75;6.00;;;;;7.65;88.30;102107.47;5093362;28;8880;-58
2021/12/18 04:34:55;;;;;;;;;5.50;1.50;;;;;7.62;88.45;102110.25;5094016;28;9004;-58
2021/12/18 04:37:23;;;;;;;;;3.25;1.00;;;;;7.62;88.64;102104.94;5092485;28;8864;-58
2021/12/18 04:39:51;;;;;;;;;7.25;5.00;;;;;7.62;88.33;102112.91;5093230;28;8852;-57
2021/12/18 04:42:20;;;;;;;;;6.50;6.00;;;;;7.61;88.27;102095.25;5091547;28;8985;-58
2021/12/18 04:44:47;;;;;;;;;7.75;7.75;;;;;7.63;87.88;102097.84;5092493;28;8868;-57
2021/12/18 04:47:15;;;;;;;;;3.75;2.00;;;;;7.64;88.27;102095.13;5092481;28;8860;-57
2021/12/18 04:49:43;;;;;;;;;7.00;4.00;;;;;7.66;88.31;102095.94;5091523;28;8834;-57
2021/12/18 04:52:11;;;;;;;;;9.25;9.00;;;;;7.66;87.75;102098.59;5092742;28;8936;-57
2021/12/18 04:54:39;;;;;;;;;4.50;4.00;;;;;7.67;88.55;102099.47;5092595;28;8845;-57
2021/12/18 04:57:06;;;;;;;;;6.00;6.00;;;;;7.67;88.38;102096.81;5092001;28;8872;-57
2021/12/18 04:59:42;;;;;;;;;3.50;3.25;;;;;7.68;88.05;102101.22;5092175;28;8872;-57
2021/12/18 05:02:10;;;;;;;;;8.00;6.25;;;;;7.68;88.25;102104.75;5091277;28;8834;-57
2021/12/18 05:04:37;;;;;;;;;3.25;3.25;;;;;7.69;88.11;102107.31;5092336;28;8870;-57
2021/12/18 05:07:05;;;;;;;;;4.75;3.75;;;;;7.68;88.25;102105.59;5091523;28;8858;-57
2021/12/18 05:09:33;;;;;;;;;6.80;5.20;;;;;7.68;88.35;102107.41;5090509;28;8841;-57
2021/12/18 05:12:01;;;;;;;;;9.00;6.00;;;;;7.68;87.92;102112.69;5091652;28;8858;-58
2021/12/18 05:14:28;;;;;;;;;5.50;5.50;;;;;7.69;88.19;102109.13;5091980;28;8897;-57
2021/12/18 05:16:56;;;;;;;;;3.25;3.25;;;;;7.69;88.39;102109.97;5090386;28;8926;-57
2021/12/18 05:19:24;;;;;;;;;3.00;3.00;;;;;7.68;88.13;102110.91;5090947;28;9566;-57
2021/12/18 05:21:52;;;;;;;;;4.00;4.00;;;;;7.68;88.12;102112.69;5090239;28;8830;-58
2021/12/18 05:24:19;;;;;;;;;5.00;4.75;;;;;7.67;88.18;102115.38;5090882;28;9555;-58
2021/12/18 05:26:47;;;;;;;;;4.50;4.50;;;;;7.66;88.65;102111.84;5090704;28;8842;-57
2021/12/18 05:29:15;;;;;;;;;3.00;3.00;;;;;7.67;88.36;102110.09;5090597;28;9433;-58
2021/12/18 05:31:43;;;;;;;;;6.50;6.00;;;;;7.68;88.26;102109.16;5090496;28;8845;-57
2021/12/18 05:34:11;;;;;;;;;3.50;3.50;;;;;7.68;88.03;102107.41;5089971;28;8854;-57
2021/12/18 05:37:11;;;;;;;;;3.75;3.00;;;;;7.68;88.07;102102.09;5091194;28;8842;-58
2021/12/18 05:39:28;;;;;;;;;2.00;2.00;;;;;7.67;88.17;102104.78;5090767;28;8874;-58
2021/12/18 05:41:56;;;;;;;;;4.00;4.00;;;;;7.66;88.21;102105.72;5090654;28;9841;-57
2021/12/18 05:44:24;;;;;;;;;2.00;1.00;;;;;7.67;88.12;102110.09;5090324;28;8862;-58
2021/12/18 05:46:52;;;;;;;;;3.50;3.25;;;;;7.66;87.71;102114.50;5090659;28;8922;-57
2021/12/18 05:49:19;;;;;;;;;4.00;3.25;;;;;7.65;88.11;102111.94;5089568;28;8850;-58
2021/12/18 05:51:47;;;;;;;;;4.00;4.00;;;;;7.66;88.22;102113.66;5090703;28;8826;-57
2021/12/18 05:54:15;;;;;;;;;4.00;3.50;;;;;7.67;88.33;102115.38;5089753;28;8972;-57
2021/12/18 05:56:42;;;;;;;;;2.50;2.50;;;;;7.67;88.38;102121.56;5090490;28;8849;-57
2021/12/18 05:59:15;;;;;;;;;2.00;1.00;;;;;7.68;88.13;102117.13;5089494;28;8978;-57
2021/12/18 06:01:43;;;;;;;;;3.00;3.00;;;;;7.67;88.38;102121.56;5090642;28;8848;-57
2021/12/18 06:04:11;;;;;;;;;2.75;2.50;;;;;7.67;88.13;102118.03;5090369;28;8866;-57
2021/12/18 06:06:39;;;;;;;;;2.50;2.50;;;;;7.64;88.00;102115.50;5090706;28;8879;-58
2021/12/18 06:09:07;;;;;;;;;0.00;0.00;;;;;7.63;88.19;102124.34;5090107;28;8860;-58
2021/12/18 06:11:37;;;;;;;;;4.50;4.00;;;;;7.61;88.30;102113.81;5091442;28;8852;-58
2021/12/18 06:14:05;;;;;;;;;1.50;0.50;;;;;7.63;88.25;102119.03;5089804;28;8838;-57
2021/12/18 06:16:33;;;;;;;;;2.00;2.00;;;;;7.61;88.18;102119.13;5089101;28;8846;-57
2021/12/18 06:19:00;;;;;;;;;0.50;0.50;;;;;7.62;88.57;102114.66;5090585;28;8849;-58
2021/12/18 06:21:28;;;;;;;;;0.75;0.75;;;;;7.62;88.46;102114.66;5089820;28;8834;-58
2021/12/18 06:23:56;;;;;;;;;1.25;0.50;;;;;7.61;88.15;102112.94;5089590;28;8864;-58
2021/12/18 06:26:27;;;;;;;;;1.50;1.50;;;;;7.61;88.53;102121.78;5089269;28;8846;-57
2021/12/18 06:28:56;;;;;;;;;3.00;0.00;;;;;7.62;88.36;102117.31;5090108;28;8850;-58
2021/12/18 06:31:30;;;;;;;;;3.50;1.00;;;;;7.63;88.29;102116.38;5090139;28;8853;-58
2021/12/18 06:33:58;;;;;;;;;2.50;2.25;;;;;7.64;88.43;102118.16;5089650;28;9500;-58
2021/12/18 06:36:26;;;;;;;;;1.00;1.00;;;;;7.64;88.87;102115.50;5088798;28;9547;-58
2021/12/18 06:38:54;;;;;;;;;1.00;1.00;;;;;7.64;88.06;102112.84;5088885;28;8826;-58
2021/12/18 06:41:22;;;;;;;;;0.25;0.25;;;;;7.64;88.37;102105.75;5090761;28;8854;-58
2021/12/18 06:43:50;;;;;;;;;0.00;0.00;;;;;7.64;88.25;102111.03;5090352;28;8837;-58
2021/12/18 06:46:18;;;;;;;;;1.50;1.00;;;;;7.65;88.20;102112.78;5088554;28;8838;-57
2021/12/18 06:48:45;;;;;;;;;1.00;1.00;;;;;7.64;88.35;102116.34;5088596;28;8822;-57
2021/12/18 06:51:13;;;;;;;;;1.00;1.00;;;;;7.65;88.56;102118.09;5087019;28;8857;-57
2021/12/18 06:53:41;;;;;;;;;0.00;0.00;;;;;7.65;88.32;102110.13;5088192;28;8931;-57
2021/12/18 06:56:09;;;;;;;;;1.00;0.00;;;;;7.66;87.86;102116.31;5087077;28;8889;-57
2021/12/18 06:58:36;;;;;;;;;0.50;0.50;;;;;7.65;87.95;102109.28;5090286;28;8849;-57
2021/12/18 07:01:04;;;;;;;;;1.00;0.75;;;;;7.65;88.25;102122.53;5088105;28;8846;-57
2021/12/18 07:03:33;;;;;;;;;3.25;3.00;;;;;7.65;88.34;102117.22;5089761;28;8880;-57
2021/12/18 07:06:01;;;;;;;;;0.00;0.00;;;;;7.64;88.21;102116.34;5090809;28;8874;-58
2021/12/18 07:08:29;;;;;;;;;1.00;0.25;;;;;7.65;88.35;102114.59;5090734;28;8850;-57
2021/12/18 07:10:56;;;;;;;;;1.00;1.00;;;;;7.65;88.48;102111.94;5090081;28;8850;-58
2021/12/18 07:13:25;;;;;;;;;0.00;0.00;;;;;7.66;87.86;102116.31;5092007;28;8968;-57
2021/12/18 07:15:53;;;;;;;;;1.00;0.25;;;;;7.68;88.33;102107.41;5090646;28;8869;-58
2021/12/18 07:18:21;;;;;;;;;1.00;1.00;;;;;7.69;88.09;102111.78;5091242;28;8860;-58
2021/12/18 07:20:51;;;;;;;;;0.00;0.00;;;;;7.69;88.32;102114.44;5090932;28;9480;-58
2021/12/18 07:23:19;;;;;;;;;4.00;3.00;;;;;7.70;88.29;102110.84;5090872;28;9004;-57
2021/12/18 07:25:46;;;;;;;;;1.00;1.00;;;;;7.68;88.18;102108.25;5090555;28;8892;-57
2021/12/18 07:28:14;;;;;;;;;3.00;1.00;;;;;7.69;87.70;102117.94;5091656;28;8860;-58
2021/12/18 07:30:47;;;;;;;;;1.00;1.00;;;;;7.70;88.37;102121.47;5091212;28;8923;-57
2021/12/18 07:33:15;;;;;;;;;1.00;1.00;;;;;7.70;88.12;102117.00;5090465;28;8857;-57
2021/12/18 07:35:43;;;;;;;;;1.00;1.00;;;;;7.72;88.44;102121.41;5088941;28;8866;-57
2021/12/18 07:38:11;;;;;;;;;2.00;1.00;;;;;7.72;88.10;102125.81;5086106;28;8892;-58
2021/12/18 07:40:39;;;;;;;;;0.00;0.00;;;;;7.73;88.00;102127.53;5087272;28;8934;-58
2021/12/18 07:43:07;;;;;;;;;0.00;0.00;;;;;7.74;87.91;102123.06;5087170;28;8854;-58
2021/12/18 07:45:35;;;;;;;;;1.50;0.25;;;;;7.74;88.08;102121.31;5089121;28;8849;-57
2021/12/18 07:48:02;;;;;;;;;1.00;1.00;;;;;7.75;88.30;102125.69;5090047;28;8944;-58
2021/12/18 07:50:30;;;;;;;;;2.00;1.00;;;;;7.76;87.85;102127.41;5087106;28;8862;-58
2021/12/18 07:52:58;;;;;;;;;0.75;0.75;;;;;7.79;88.64;102127.34;5089149;28;8845;-58
2021/12/18 07:55:28;;;;;;;;;0.00;0.00;;;;;7.78;88.01;102117.66;5088146;28;10074;-58
2021/12/18 07:57:55;;;;;;;;;3.00;2.00;;;;;7.78;88.45;102122.94;5086383;28;8857;-58
2021/12/18 08:00:23;;;;;;;;;0.50;0.50;;;;;7.78;88.05;102120.31;5087495;28;8853;-58
2021/12/18 08:02:51;;;;;;;;;0.00;0.00;;;;;7.78;88.35;102120.31;5084082;28;8850;-58
2021/12/18 08:05:19;;;;;;;;;0.00;0.00;;;;;7.79;88.00;102119.38;5084794;28;8896;-58
2021/12/18 08:07:46;;;;;;;;;0.75;0.00;;;;;7.79;88.06;102111.41;5088314;28;8858;-58
2021/12/18 08:10:14;;;;;;;;;0.75;0.75;;;;;7.80;88.04;102112.28;5084657;28;9031;-57
2021/12/18 08:12:42;;;;;;;;;0.50;0.50;;;;;7.81;88.17;102111.34;5088713;28;8860;-58
2021/12/18 08:15:10;;;;;;;;;1.00;0.00;;;;;7.81;87.72;102108.69;5090105;28;8879;-58
2021/12/18 08:17:37;;;;;;;;;0.00;0.00;;;;;7.79;88.11;102113.19;5087440;28;8846;-57
2021/12/18 08:20:05;;;;;;;;;1.00;1.00;;;;;7.78;88.15;102108.81;5086219;28;8978;-57
2021/12/18 08:22:33;;;;;;;;;2.00;0.50;;;;;7.77;88.24;102112.38;5088164;28;8868;-58
2021/12/18 08:25:01;;;;;;;;;0.50;0.50;;;;;7.78;87.98;102116.75;5087994;28;8849;-58
2021/12/18 08:27:30;;;;;;;;;2.00;0.75;;;;;7.78;88.26;102109.69;5087604;28;9282;-58
2021/12/18 08:29:57;;;;;;;;;1.00;1.00;;;;;7.76;87.92;102116.81;5087972;28;8850;-58
2021/12/18 08:32:25;;;;;;;;;2.00;2.00;;;;;7.76;88.18;102113.31;5088764;28;8862;-57
2021/12/18 08:34:53;;;;;;;;;6.50;4.00;;;;;7.74;88.07;102117.78;5088299;28;8862;-57
2021/12/18 08:37:21;;;;;;;;;1.50;1.50;;;;;7.74;88.11;102113.34;5087972;28;8882;-58
2021/12/18 08:39:48;;;;;;;;;1.00;1.00;;;;;7.75;87.91;102114.22;5085521;28;8850;-58
2021/12/18 08:42:17;;;;;;;;;1.50;1.00;;;;;7.75;88.55;102115.06;5087195;28;8856;-58
2021/12/18 08:44:45;;;;;;;;;0.75;0.75;;;;;7.77;88.47;102126.50;5088823;28;8845;-57
2021/12/18 08:47:14;;;;;;;;;1.50;1.00;;;;;7.78;88.32;102125.59;5086883;28;8849;-58
2021/12/18 08:49:42;;;;;;;;;1.00;1.00;;;;;7.80;88.29;102126.41;5086662;28;8830;-58
2021/12/18 08:52:10;;;;;;;;;1.00;1.00;;;;;7.83;88.39;102123.63;5086470;28;8858;-58
2021/12/18 08:54:37;;;;;;;;;0.25;0.25;;;;;7.86;88.46;102123.56;5087349;28;8961;-58
2021/12/18 08:57:08;;;;;;;;;1.00;1.00;;;;;7.90;88.26;102124.31;5087210;28;8857;-58
2021/12/18 08:59:37;;;;;;;;;2.50;2.00;;;;;7.93;87.72;102119.78;5085130;28;8854;-58
2021/12/18 09:02:05;;;;;;;;;2.50;1.50;;;;;7.98;88.26;102115.16;5085241;28;9592;-57
2021/12/18 09:04:32;;;;;;;;;0.25;0.25;;;;;8.02;87.98;102119.47;5086080;28;8870;-58
2021/12/18 09:07:00;;;;;;;;;4.00;3.00;;;;;8.07;88.09;102120.16;5085065;28;9527;-58
2021/12/18 09:09:28;;;;;;;;;1.00;1.00;;;;;8.09;88.22;102120.97;5085259;28;8857;-58
2021/12/18 09:11:56;;;;;;;;;2.00;1.00;;;;;8.13;87.65;102117.28;5086887;28;8845;-58
2021/12/18 09:14:24;;;;;;;;;2.50;2.50;;;;;8.15;87.75;102120.75;5087814;28;8854;-58
2021/12/18 09:16:52;;;;;;;;;1.00;1.00;;;;;8.17;87.76;102113.63;5086949;28;8849;-58
2021/12/18 09:19:20;;;;;;;;;0.00;0.00;;;;;8.19;87.47;102117.13;5086452;28;8868;-58
2021/12/18 09:21:48;;;;;;;;;1.50;1.00;;;;;8.21;87.22;102115.25;5085854;28;9946;-58
2021/12/18 09:24:15;;;;;;;;;1.00;1.00;;;;;8.24;87.42;102104.56;5083472;28;8916;-58
2021/12/18 09:26:43;;;;;;;;;0.50;0.00;;;;;8.28;87.59;102115.94;5085890;28;8980;-58
2021/12/18 09:29:10;;;;;;;;;3.00;3.00;;;;;8.31;87.48;102121.13;5084582;28;9605;-58
2021/12/18 09:31:38;;;;;;;;;1.00;1.00;;;;;8.31;87.40;102116.69;5083302;28;8842;-58
2021/12/18 09:34:06;;;;;;;;;1.00;1.00;;;;;8.34;87.58;102123.66;5084179;28;8842;-57
2021/12/18 09:36:34;;;;;;;;;3.00;3.00;;;;;8.35;87.27;102115.66;5084167;28;9612;-58
2021/12/18 09:39:02;;;;;;;;;4.75;3.75;;;;;8.37;87.45;102116.44;5085586;28;8854;-58
2021/12/18 09:41:29;;;;;;;;;3.50;2.50;;;;;8.38;87.55;102107.56;5084094;28;8866;-58
2021/12/18 09:43:57;;;;;;;;;2.50;2.50;;;;;8.41;87.48;102115.44;5084381;28;9701;-58
2021/12/18 09:46:26;;;;;;;;;2.50;2.50;;;;;8.43;87.16;102116.25;5085979;28;8922;-57
2021/12/18 09:48:53;;;;;;;;;0.75;0.75;;;;;8.45;87.41;102108.22;5085747;28;8838;-58
2021/12/18 09:51:27;;;;;;;;;1.00;1.00;;;;;8.47;87.28;102101.06;5085576;28;8854;-58
2021/12/18 09:53:55;;;;;;;;;1.50;1.50;;;;;8.48;87.27;102094.81;5084006;28;8845;-58
2021/12/18 09:56:23;;;;;;;;;1.50;1.00;;;;;8.49;87.28;102100.09;5084982;28;8846;-58
2021/12/18 09:58:51;;;;;;;;;3.75;3.00;;;;;8.51;87.30;102098.22;5085367;28;8853;-58
2021/12/18 10:01:18;;;;;;;;;3.00;1.50;;;;;8.52;86.96;102112.41;5082419;28;8854;-58
2021/12/18 10:03:46;;;;;;;;;1.00;1.00;;;;;8.50;87.27;102104.47;5083457;28;9697;-58
2021/12/18 10:06:14;;;;;;;;;2.50;1.00;;;;;8.50;87.37;102098.31;5083111;28;8861;-58
2021/12/18 10:08:42;;;;;;;;;1.75;0.50;;;;;8.51;87.35;102100.91;5083823;28;8846;-58
2021/12/18 10:11:10;;;;;;;;;4.00;4.00;;;;;8.54;87.48;102092.84;5082057;28;8926;-58
2021/12/18 10:13:37;;;;;;;;;6.00;6.00;;;;;8.55;87.11;102094.56;5082614;28;8895;-58
2021/12/18 10:16:05;;;;;;;;;1.00;1.00;;;;;8.59;87.52;102084.69;5083445;28;8834;-58
2021/12/18 10:18:33;;;;;;;;;2.50;2.00;;;;;8.60;87.64;102084.63;5076905;28;8861;-58
2021/12/18 10:21:05;;;;;;;;;3.25;3.00;;;;;8.63;86.92;102079.22;5082542;28;8860;-57
2021/12/18 10:23:33;;;;;;;;;2.00;2.00;;;;;8.63;87.41;102076.56;5080951;28;8864;-58
2021/12/18 10:26:01;;;;;;;;;3.75;3.25;;;;;8.64;87.14;102078.28;5083363;28;8834;-58
2021/12/18 10:28:29;;;;;;;;;2.50;1.75;;;;;8.65;87.38;102074.69;5079802;28;8841;-58
2021/12/18 10:30:58;;;;;;;;;4.00;3.00;;;;;8.66;87.11;102073.78;5076679;28;8858;-58
2021/12/18 10:33:27;;;;;;;;;3.00;1.00;;;;;8.67;86.99;102072.00;5078592;28;8866;-58
2021/12/18 10:35:55;;;;;;;;;2.50;2.50;;;;;8.68;86.90;102074.56;5079142;28;8976;-58
2021/12/18 10:38:22;;;;;;;;;1.00;1.00;;;;;8.69;87.13;102071.00;5079243;28;8833;-58
2021/12/18 10:40:50;;;;;;;;;3.00;3.00;;;;;8.71;86.95;102069.16;5079079;28;8853;-58
2021/12/18 10:43:18;;;;;;;;;3.75;3.00;;;;;8.71;86.88;102063.84;5077429;28;9013;-57
2021/12/18 10:45:46;;;;;;;;;2.75;2.00;;;;;8.71;87.01;102063.84;5080072;28;9766;-58
2021/12/18 10:48:14;;;;;;;;;5.50;5.50;;;;;8.71;86.90;102062.97;5077945;28;9764;-57
2021/12/18 10:50:41;;;;;;;;;3.25;3.25;;;;;8.71;86.84;102065.63;5079672;28;8850;-57
2021/12/18 10:53:09;;;;;;;;;3.00;3.00;;;;;8.71;87.50;102062.97;5078920;28;8854;-57
2021/12/18 10:55:41;;;;;;;;;3.50;3.50;;;;;8.72;87.07;102062.91;5082718;28;8873;-57
2021/12/18 10:58:08;;;;;;;;;5.00;4.00;;;;;8.74;86.98;102058.41;5081054;28;8858;-57
2021/12/18 11:00:36;;;;;;;;;4.00;4.00;;;;;8.74;87.25;102058.41;5081168;28;8846;-58
2021/12/18 11:03:04;;;;;;;;;1.00;0.75;;;;;8.75;87.10;102053.97;5081185;28;8857;-58
2021/12/18 11:05:32;;;;;;;;;3.75;3.75;;;;;8.75;87.04;102054.81;5082072;28;8877;-57
2021/12/18 11:07:59;;;;;;;;;3.50;3.50;;;;;8.76;86.97;102058.34;5080253;28;8861;-57
2021/12/18 11:10:42;;;;;;;;;3.00;3.00;;;;;8.74;86.96;102047.78;5080698;28;8915;-58
2021/12/18 11:15:55;;;;;;;;;4.00;4.00;;;;;8.74;87.29;102042.47;5079019;28;8872;-57
2021/12/18 11:18:23;;;;;;;;;5.00;3.50;;;;;8.73;86.95;102035.44;5082105;28;9635;-57
2021/12/18 11:20:51;;;;;;;;;3.50;3.00;;;;;8.75;87.20;102033.56;5079139;28;8868;-58
2021/12/18 11:23:21;;;;;;;;;4.00;2.00;;;;;8.74;87.27;102031.84;5079305;28;9651;-57
2021/12/18 11:25:49;;;;;;;;;4.50;4.00;;;;;8.73;87.42;102035.44;5075789;28;8858;-58
2021/12/18 11:28:17;;;;;;;;;3.00;3.00;;;;;8.75;87.30;102028.25;5081342;28;8846;-58
2021/12/18 11:30:44;;;;;;;;;8.00;7.00;;;;;8.73;87.21;102024.81;5079814;28;8846;-58
2021/12/18 11:33:12;;;;;;;;;7.00;6.50;;;;;8.73;87.17;102024.81;5080859;28;8876;-57
2021/12/18 11:35:42;;;;;;;;;4.50;4.00;;;;;8.73;87.35;102024.81;5078488;28;8870;-58
2021/12/18 11:38:11;;;;;;;;;12.50;9.50;;;;;8.73;87.12;102026.63;5080531;28;8842;-57
2021/12/18 11:40:39;;;;;;;;;9.00;7.00;;;;;8.70;87.36;102024.94;5077237;28;8842;-58
2021/12/18 11:43:07;;;;;;;;;5.00;4.00;;;;;8.69;87.26;102023.22;5080484;28;8846;-57
2021/12/18 11:45:35;;;;;;;;;4.50;3.25;;;;;8.67;87.23;102014.41;5078661;28;8960;-58
2021/12/18 11:48:03;;;;;;;;;6.50;6.00;;;;;8.65;87.13;102015.44;5082382;28;8834;-57
2021/12/18 11:50:31;;;;;;;;;3.75;3.75;;;;;8.61;87.18;102017.34;5081228;28;8845;-57
2021/12/18 11:52:59;;;;;;;;;3.75;3.00;;;;;8.59;87.22;102011.19;5081268;28;8852;-57
2021/12/18 11:55:27;;;;;;;;;6.75;6.50;;;;;8.60;87.74;102010.25;5084710;28;8857;-57
2021/12/18 11:57:57;;;;;;;;;6.00;4.50;;;;;8.61;87.94;102005.84;5083392;28;8964;-58
2021/12/18 12:00:25;;;;;;;;;8.50;7.25;;;;;8.62;87.41;102007.56;5082644;28;8860;-58
2021/12/18 12:02:53;;;;;;;;;4.50;4.00;;;;;8.65;87.53;102000.34;5086068;28;8870;-57
2021/12/18 12:05:21;;;;;;;;;6.50;6.50;;;;;8.66;87.63;102006.53;5085793;28;9017;-57
2021/12/18 12:07:51;;;;;;;;;5.50;5.50;;;;;8.68;87.52;101997.56;5082025;28;8887;-57
2021/12/18 12:10:24;;;;;;;;;6.75;6.25;;;;;8.71;87.66;102004.53;5082044;28;8846;-57
2021/12/18 12:12:52;;;;;;;;;6.50;6.00;;;;;8.71;87.63;102000.09;5084738;28;8865;-57
2021/12/18 12:15:20;;;;;;;;;6.75;6.50;;;;;8.72;87.42;102001.84;5085051;28;8854;-57
2021/12/18 12:17:48;;;;;;;;;3.25;2.75;;;;;8.72;87.96;101990.31;5086725;28;9990;-57
2021/12/18 12:20:16;;;;;;;;;7.00;6.50;;;;;8.71;87.40;101993.91;5084076;28;8846;-57
2021/12/18 12:22:47;;;;;;;;;7.00;6.25;;;;;8.70;87.61;101987.75;5082867;28;8859;-57